createdAt,value
2019-03-21T00:02:01.791Z,10.50
2019-03-21T00:04:32.597Z,10.48
2019-03-21T00:07:03.618Z,10.58
2019-03-21T00:09:34.197Z,10.53
2019-03-21T00:12:13.766Z,10.52
2019-03-21T00:14:50.463Z,10.60
2019-03-21T00:17:44.618Z,10.60
2019-03-21T00:20:17.765Z,10.64
2019-03-21T00:22:48.245Z,10.57
2019-03-21T00:25:22.437Z,10.56
2019-03-21T00:27:53.239Z,10.56
2019-03-21T00:30:28.314Z,10.62
2019-03-21T00:32:59.131Z,10.62
2019-03-21T00:35:29.936Z,10.52
2019-03-21T00:38:00.787Z,10.60
2019-03-21T00:40:40.474Z,10.65
2019-03-21T00:43:12.701Z,10.55
2019-03-21T00:45:43.138Z,10.60
2019-03-21T00:48:16.847Z,10.54
2019-03-21T00:50:47.685Z,10.56
2019-03-21T00:53:18.159Z,10.54
2019-03-21T00:55:54.314Z,10.51
2019-03-21T00:58:25.266Z,10.50
2019-03-21T01:00:59.421Z,10.43
2019-03-21T01:03:32.799Z,10.59
2019-03-21T01:06:03.556Z,10.52
2019-03-21T01:08:34.578Z,10.54
2019-03-21T01:11:05.190Z,10.42
2019-03-21T01:13:38.391Z,10.66
2019-03-21T01:16:12.341Z,10.45
2019-03-21T01:18:47.539Z,10.53
2019-03-21T01:21:18.417Z,10.58
2019-03-21T01:23:49.181Z,10.60
2019-03-21T01:26:19.903Z,10.44
2019-03-21T01:28:50.794Z,10.46
2019-03-21T01:31:21.652Z,10.45
2019-03-21T01:33:52.133Z,10.40
2019-03-21T01:36:24.449Z,10.39
2019-03-21T01:38:55.276Z,10.54
2019-03-21T01:41:26.077Z,10.38
2019-03-21T01:43:56.958Z,10.45
2019-03-21T01:46:28.111Z,10.52
2019-03-21T01:48:58.919Z,10.46
2019-03-21T01:51:29.759Z,10.51
2019-03-21T01:54:00.607Z,10.48
2019-03-21T01:56:31.913Z,10.50
2019-03-21T01:59:02.702Z,10.45
2019-03-21T02:01:33.908Z,10.48
2019-03-21T02:04:04.484Z,10.56
2019-03-21T02:06:35.347Z,10.50
2019-03-21T02:09:08.603Z,10.48
2019-03-21T02:11:39.438Z,10.54
2019-03-21T02:14:10.873Z,10.49
2019-03-21T02:16:41.836Z,10.46
2019-03-21T02:19:12.750Z,10.50
2019-03-21T02:21:43.719Z,10.44
2019-03-21T02:24:14.641Z,10.41
2019-03-21T02:26:45.368Z,10.38
2019-03-21T02:29:16.306Z,10.44
2019-03-21T02:31:47.224Z,10.42
2019-03-21T02:34:17.737Z,10.38
2019-03-21T02:36:48.827Z,10.40
2019-03-21T02:39:19.545Z,10.45
2019-03-21T02:41:50.294Z,10.50
2019-03-21T02:44:21.023Z,10.53
2019-03-21T02:46:51.551Z,10.42
2019-03-21T02:49:22.402Z,10.42
2019-03-21T02:51:52.963Z,10.50
2019-03-21T02:54:23.391Z,10.44
2019-03-21T02:56:54.279Z,10.49
2019-03-21T02:59:25.268Z,10.46
2019-03-21T03:01:56.266Z,10.44
2019-03-21T03:04:27.094Z,10.39
2019-03-21T03:07:01.345Z,10.40
2019-03-21T03:09:32.972Z,10.46
2019-03-21T03:12:03.708Z,10.38
2019-03-21T03:14:34.696Z,10.40
2019-03-21T03:17:06.137Z,10.46
2019-03-21T03:19:36.940Z,10.26
2019-03-21T03:22:07.938Z,10.46
2019-03-21T03:24:38.613Z,10.37
2019-03-21T03:27:09.631Z,10.40
2019-03-21T03:29:40.451Z,10.41
2019-03-21T03:32:10.947Z,10.48
2019-03-21T03:34:41.917Z,10.36
2019-03-21T03:37:12.548Z,10.44
2019-03-21T03:39:45.150Z,10.37
2019-03-21T03:42:16.098Z,10.46
2019-03-21T03:44:47.230Z,10.45
2019-03-21T03:47:18.199Z,10.38
2019-03-21T03:49:49.016Z,10.40
2019-03-21T03:52:20.230Z,10.42
2019-03-21T03:54:51.013Z,10.33
2019-03-21T03:57:24.518Z,10.40
2019-03-21T03:59:55.484Z,10.46
2019-03-21T04:02:26.434Z,10.50
2019-03-21T04:04:57.343Z,10.52
2019-03-21T04:07:28.256Z,10.47
2019-03-21T04:09:58.824Z,10.48
2019-03-21T04:12:29.973Z,10.40
2019-03-21T04:15:00.975Z,10.37
2019-03-21T04:17:31.573Z,10.31
2019-03-21T04:20:02.544Z,10.39
2019-03-21T04:22:33.382Z,10.41
2019-03-21T04:25:05.031Z,10.48
2019-03-21T04:27:36.097Z,10.43
2019-03-21T04:30:10.251Z,10.39
2019-03-21T04:32:41.138Z,10.34
2019-03-21T04:35:15.054Z,10.40
2019-03-21T04:37:46.094Z,10.40
2019-03-21T04:40:18.649Z,10.35
2019-03-21T04:42:49.090Z,10.33
2019-03-21T04:45:22.462Z,10.34
2019-03-21T04:47:53.319Z,10.38
2019-03-21T04:50:29.979Z,10.40
2019-03-21T04:53:00.790Z,10.32
2019-03-21T04:55:34.281Z,10.44
2019-03-21T04:58:04.868Z,10.37
2019-03-21T05:00:41.110Z,10.42
2019-03-21T05:03:20.658Z,10.46
2019-03-21T05:05:51.548Z,10.45
2019-03-21T05:08:22.387Z,10.30
2019-03-21T05:10:53.296Z,10.42
2019-03-21T05:13:24.271Z,10.32
2019-03-21T05:15:55.347Z,10.36
2019-03-21T05:18:35.561Z,10.46
2019-03-21T05:21:09.640Z,10.38
2019-03-21T05:23:40.407Z,10.45
2019-03-21T05:26:11.283Z,10.36
2019-03-21T05:28:42.137Z,10.38
2019-03-21T05:31:16.291Z,10.34
2019-03-21T05:33:47.065Z,10.50
2019-03-21T05:36:17.963Z,10.38
2019-03-21T05:38:48.947Z,10.48
2019-03-21T05:41:19.972Z,10.46
2019-03-21T05:44:00.787Z,10.40
2019-03-21T05:46:32.337Z,10.46
2019-03-21T05:49:03.320Z,10.46
2019-03-21T05:51:37.693Z,10.35
2019-03-21T05:54:08.652Z,10.43
2019-03-21T05:56:39.389Z,10.40
2019-03-21T05:59:10.365Z,10.43
2019-03-21T06:01:41.140Z,10.44
2019-03-21T06:04:12.065Z,10.52
2019-03-21T06:07:00.243Z,10.45
2019-03-21T06:09:31.469Z,10.45
2019-03-21T06:12:04.571Z,10.42
2019-03-21T06:14:38.523Z,10.54
2019-03-21T06:17:10.931Z,10.47
2019-03-21T06:20:04.259Z,10.45
2019-03-21T06:22:53.332Z,10.52
2019-03-21T06:25:44.062Z,10.52
2019-03-21T06:28:14.895Z,10.56
2019-03-21T06:30:47.490Z,10.52
2019-03-21T06:33:19.446Z,10.42
2019-03-21T06:35:53.251Z,10.52
2019-03-21T06:38:24.004Z,10.53
2019-03-21T06:40:55.127Z,10.48
2019-03-21T06:43:25.969Z,10.51
2019-03-21T06:45:58.323Z,10.56
2019-03-21T06:48:29.225Z,10.47
2019-03-21T06:51:03.191Z,10.48
2019-03-21T06:53:34.047Z,10.62
2019-03-21T06:56:04.887Z,10.58
2019-03-21T06:58:35.825Z,10.67
2019-03-21T07:01:06.755Z,10.76
2019-03-21T07:03:37.675Z,10.73
2019-03-21T07:06:12.781Z,10.67
2019-03-21T07:08:43.711Z,10.70
2019-03-21T07:11:14.635Z,10.74
2019-03-21T07:13:45.588Z,10.70
2019-03-21T07:16:19.535Z,10.68
2019-03-21T07:18:50.543Z,10.72
2019-03-21T07:21:21.436Z,10.70
2019-03-21T07:23:52.277Z,10.74
2019-03-21T07:26:23.085Z,10.64
2019-03-21T07:28:54.026Z,10.69
2019-03-21T07:31:26.111Z,10.79
2019-03-21T07:33:59.462Z,10.69
2019-03-21T07:36:30.902Z,10.62
2019-03-21T07:39:01.693Z,10.75
2019-03-21T07:41:32.600Z,10.76
2019-03-21T07:44:03.382Z,10.68
2019-03-21T07:46:33.927Z,10.68
2019-03-21T07:49:04.697Z,10.74
2019-03-21T07:51:35.536Z,10.76
2019-03-21T07:54:06.440Z,10.78
2019-03-21T07:56:37.166Z,10.72
2019-03-21T07:59:07.989Z,10.78
2019-03-21T08:01:38.577Z,10.79
2019-03-21T08:04:11.062Z,10.79
2019-03-21T08:06:41.749Z,10.88
2019-03-21T08:09:12.546Z,10.86
2019-03-21T08:11:43.411Z,10.83
2019-03-21T08:14:14.474Z,10.76
2019-03-21T08:16:45.060Z,10.86
2019-03-21T08:19:16.271Z,10.95
2019-03-21T08:21:47.098Z,10.94
2019-03-21T08:24:21.426Z,10.84
2019-03-21T08:26:51.884Z,10.91
2019-03-21T08:29:22.380Z,10.86
2019-03-21T08:31:53.157Z,10.90
2019-03-21T08:34:24.084Z,11.02
2019-03-21T08:36:56.263Z,11.03
2019-03-21T08:39:27.192Z,11.04
2019-03-21T08:41:58.026Z,11.12
2019-03-21T08:44:29.599Z,11.00
2019-03-21T08:47:00.452Z,11.08
2019-03-21T08:49:31.265Z,11.18
2019-03-21T08:52:02.264Z,11.07
2019-03-21T08:54:35.016Z,11.09
2019-03-21T08:57:08.686Z,11.08
2019-03-21T08:59:41.264Z,11.23
2019-03-21T09:02:12.093Z,11.26
2019-03-21T09:04:42.932Z,11.26
2019-03-21T09:07:14.193Z,11.23
2019-03-21T09:09:45.146Z,11.39
2019-03-21T09:12:15.954Z,11.39
2019-03-21T09:14:46.895Z,11.48
2019-03-21T09:17:18.814Z,11.45
2019-03-21T09:19:49.594Z,11.49
2019-03-21T09:22:20.610Z,11.43
2019-03-21T09:24:51.363Z,11.42
2019-03-21T09:27:21.752Z,11.52
2019-03-21T09:29:53.710Z,11.37
2019-03-21T09:32:28.242Z,11.46
2019-03-21T09:34:58.730Z,11.66
2019-03-21T09:37:29.534Z,11.64
2019-03-21T09:40:00.406Z,11.57
2019-03-21T09:42:31.215Z,11.78
2019-03-21T09:45:03.808Z,11.61
2019-03-21T09:47:34.631Z,11.61
2019-03-21T09:50:07.258Z,11.70
2019-03-21T09:52:38.112Z,11.56
2019-03-21T09:55:09.294Z,11.70
2019-03-21T09:57:40.144Z,11.65
2019-03-21T10:00:12.390Z,11.74
2019-03-21T10:02:43.324Z,11.78
2019-03-21T10:05:13.793Z,11.90
2019-03-21T10:07:49.058Z,11.68
2019-03-21T10:10:26.202Z,11.82
2019-03-21T10:12:59.087Z,11.84
2019-03-21T10:15:30.085Z,11.82
2019-03-21T10:18:01.263Z,11.76
2019-03-21T10:20:32.088Z,11.95
2019-03-21T10:23:03.028Z,12.00
2019-03-21T10:25:33.753Z,12.13
2019-03-21T10:28:07.052Z,12.28
2019-03-21T10:30:39.420Z,12.16
2019-03-21T10:33:11.988Z,12.14
2019-03-21T10:35:42.879Z,12.11
2019-03-21T10:38:14.255Z,12.17
2019-03-21T10:40:46.337Z,12.09
2019-03-21T10:43:17.186Z,12.32
2019-03-21T10:45:47.924Z,12.43
2019-03-21T10:48:18.696Z,12.60
2019-03-21T10:50:49.774Z,12.40
2019-03-21T10:53:20.626Z,12.44
2019-03-21T10:55:51.547Z,12.42
2019-03-21T10:58:22.500Z,12.43
2019-03-21T11:00:53.979Z,12.36
2019-03-21T11:03:24.928Z,12.47
2019-03-21T11:05:55.415Z,12.56
2019-03-21T11:08:26.300Z,12.42
2019-03-21T11:10:57.111Z,12.50
2019-03-21T11:13:28.013Z,12.54
2019-03-21T11:15:58.877Z,12.42
2019-03-21T11:18:35.944Z,12.44
2019-03-21T11:21:03.223Z,12.31
2019-03-21T11:23:34.024Z,12.34
2019-03-21T11:26:04.901Z,12.19
2019-03-21T11:28:35.762Z,12.33
2019-03-21T11:31:06.690Z,12.21
2019-03-21T11:33:37.511Z,12.24
2019-03-21T11:36:09.911Z,12.33
2019-03-21T11:38:40.729Z,12.36
2019-03-21T11:41:11.447Z,12.59
2019-03-21T11:43:42.520Z,12.59
2019-03-21T11:46:13.774Z,12.32
2019-03-21T11:48:44.331Z,12.39
2019-03-21T11:51:15.232Z,12.43
2019-03-21T11:53:46.096Z,12.27
2019-03-21T11:56:18.518Z,12.29
2019-03-21T11:58:49.058Z,12.22
2019-03-21T12:01:19.798Z,12.28
2019-03-21T12:03:50.613Z,12.34
2019-03-21T12:06:21.463Z,12.41
2019-03-21T12:08:52.293Z,12.38
2019-03-21T12:11:23.030Z,12.44
2019-03-21T12:13:53.751Z,12.54
2019-03-21T12:16:24.501Z,12.50
2019-03-21T12:18:55.414Z,12.58
2019-03-21T12:21:26.412Z,12.70
2019-03-21T12:23:57.201Z,12.76
2019-03-21T12:26:28.084Z,12.60
2019-03-21T12:28:58.907Z,12.69
2019-03-21T12:31:31.346Z,12.64
2019-03-21T12:34:01.851Z,12.63
2019-03-21T12:36:32.533Z,12.59
2019-03-21T12:39:03.265Z,12.49
2019-03-21T12:41:34.114Z,12.40
2019-03-21T12:44:04.938Z,12.50
2019-03-21T12:46:35.780Z,12.31
2019-03-21T12:49:06.515Z,12.38
2019-03-21T12:51:37.352Z,12.31
2019-03-21T12:54:08.365Z,12.36
2019-03-21T12:56:39.214Z,12.53
2019-03-21T12:59:09.954Z,12.70
2019-03-21T13:01:40.996Z,12.50
2019-03-21T13:04:11.476Z,12.58
2019-03-21T13:06:44.869Z,12.66
2019-03-21T13:09:17.477Z,12.78
2019-03-21T13:11:48.341Z,12.76
2019-03-21T13:14:19.173Z,12.75
2019-03-21T13:16:49.907Z,12.80
2019-03-21T13:19:20.678Z,12.92
2019-03-21T13:21:51.534Z,12.69
2019-03-21T13:24:22.373Z,12.76
2019-03-21T13:26:53.266Z,12.82
2019-03-21T13:29:25.134Z,12.84
2019-03-21T13:31:55.899Z,12.90
2019-03-21T13:34:27.249Z,12.86
2019-03-21T13:36:58.025Z,12.81
2019-03-21T13:39:28.993Z,12.74
2019-03-21T13:42:00.964Z,12.83
2019-03-21T13:44:31.720Z,12.80
2019-03-21T13:47:02.621Z,12.72
2019-03-21T13:49:33.476Z,12.76
2019-03-21T13:52:04.914Z,12.76
2019-03-21T13:54:35.977Z,12.64
2019-03-21T13:57:06.678Z,12.77
2019-03-21T13:59:37.585Z,12.60
2019-03-21T14:02:08.431Z,12.58
2019-03-21T14:04:39.191Z,12.74
2019-03-21T14:07:10.529Z,12.76
2019-03-21T14:09:41.548Z,12.80
2019-03-21T14:12:14.404Z,12.75
2019-03-21T14:14:45.086Z,13.00
2019-03-21T14:17:21.954Z,12.98
2019-03-21T14:19:47.972Z,13.14
2019-03-21T14:22:21.234Z,13.08
2019-03-21T14:24:51.298Z,13.10
2019-03-21T14:27:22.107Z,13.04
2019-03-21T14:30:00.767Z,13.01
2019-03-21T14:32:25.068Z,13.00
2019-03-21T14:34:58.176Z,13.02
2019-03-21T14:37:28.611Z,12.87
2019-03-21T14:39:59.287Z,12.92
2019-03-21T14:42:30.159Z,13.01
2019-03-21T14:45:00.977Z,13.09
2019-03-21T14:47:36.446Z,13.12
2019-03-21T14:50:09.633Z,13.08
2019-03-21T14:52:40.438Z,13.10
2019-03-21T14:55:12.819Z,13.21
2019-03-21T14:57:45.110Z,13.35
2019-03-21T15:00:18.359Z,13.24
2019-03-21T15:02:49.238Z,13.17
2019-03-21T15:05:20.054Z,13.35
2019-03-21T15:07:50.990Z,13.39
2019-03-21T15:10:21.728Z,13.56
2019-03-21T15:12:52.464Z,13.46
2019-03-21T15:15:23.303Z,13.46
2019-03-21T15:17:54.334Z,13.44
2019-03-21T15:20:29.168Z,13.35
2019-03-21T15:23:00.189Z,13.35
2019-03-21T15:25:31.119Z,13.38
2019-03-21T15:28:01.989Z,13.16
2019-03-21T15:30:32.749Z,13.26
2019-03-21T15:33:03.676Z,13.07
2019-03-21T15:35:34.415Z,13.14
2019-03-21T15:38:05.282Z,13.11
2019-03-21T15:40:36.201Z,13.17
2019-03-21T15:43:07.007Z,13.15
2019-03-21T15:45:37.910Z,13.17
2019-03-21T15:48:08.816Z,13.17
2019-03-21T15:50:39.631Z,13.20
2019-03-21T15:53:10.487Z,13.14
2019-03-21T15:55:41.392Z,13.07
2019-03-21T15:58:12.231Z,13.05
2019-03-21T16:00:44.208Z,13.02
2019-03-21T16:03:15.038Z,13.07
2019-03-21T16:05:46.005Z,13.09
2019-03-21T16:08:16.800Z,13.13
2019-03-21T16:10:47.579Z,13.18
2019-03-21T16:13:18.412Z,13.18
2019-03-21T16:15:49.214Z,13.04
2019-03-21T16:18:20.392Z,12.92
2019-03-21T16:20:51.362Z,12.86
2019-03-21T16:23:21.805Z,12.86
2019-03-21T16:25:55.642Z,12.84
2019-03-21T16:28:26.500Z,12.80
2019-03-21T16:30:57.326Z,12.79
2019-03-21T16:33:28.573Z,12.63
2019-03-21T16:36:01.149Z,12.70
2019-03-21T16:38:31.992Z,12.61
2019-03-21T16:41:02.513Z,12.70
2019-03-21T16:43:33.427Z,12.57
2019-03-21T16:46:04.604Z,12.56
2019-03-21T16:48:35.627Z,12.42
2019-03-21T16:51:06.476Z,12.48
2019-03-21T16:53:37.406Z,12.43
2019-03-21T16:56:07.933Z,12.51
2019-03-21T16:58:38.794Z,12.36
2019-03-21T17:01:09.200Z,12.42
2019-03-21T17:03:40.067Z,12.34
2019-03-21T17:06:10.869Z,12.34
2019-03-21T17:08:41.768Z,12.39
2019-03-21T17:11:12.766Z,12.40
2019-03-21T17:13:43.749Z,12.26
2019-03-21T17:16:15.133Z,12.19
2019-03-21T17:18:46.111Z,12.24
2019-03-21T17:21:16.911Z,12.24
2019-03-21T17:23:47.877Z,12.16
2019-03-21T17:26:18.702Z,12.21
2019-03-21T17:28:49.485Z,12.15
2019-03-21T17:31:20.483Z,12.19
2019-03-21T17:33:51.359Z,12.19
2019-03-21T17:36:22.348Z,12.12
2019-03-21T17:38:54.222Z,12.16
2019-03-21T17:41:25.059Z,12.06
2019-03-21T17:43:55.998Z,12.00
2019-03-21T17:46:26.586Z,11.99
2019-03-21T17:48:57.471Z,11.98
2019-03-21T17:51:28.416Z,12.00
2019-03-21T17:53:58.971Z,11.96
2019-03-21T17:56:29.873Z,11.98
2019-03-21T17:59:00.816Z,11.96
2019-03-21T18:01:31.549Z,11.98
2019-03-21T18:04:02.638Z,11.99
2019-03-21T18:06:35.382Z,11.96
2019-03-21T18:09:08.177Z,11.92
2019-03-21T18:11:40.103Z,11.94
2019-03-21T18:14:10.672Z,11.90
2019-03-21T18:16:41.486Z,11.88
2019-03-21T18:19:12.354Z,11.85
2019-03-21T18:21:43.183Z,11.84
2019-03-21T18:24:13.984Z,11.88
2019-03-21T18:26:45.013Z,11.86
2019-03-21T18:29:15.795Z,11.76
2019-03-21T18:31:46.589Z,11.81
2019-03-21T18:34:17.426Z,11.79
2019-03-21T18:36:52.173Z,11.78
2019-03-21T18:39:22.996Z,11.76
2019-03-21T18:41:53.977Z,11.72
2019-03-21T18:44:24.769Z,11.68
2019-03-21T18:46:55.871Z,11.64
2019-03-21T18:49:28.012Z,11.62
2019-03-21T18:52:00.527Z,11.64
2019-03-21T18:54:31.549Z,11.74
2019-03-21T18:57:02.472Z,11.67
2019-03-21T18:59:33.747Z,11.64
2019-03-21T19:02:04.756Z,11.63
2019-03-21T19:04:35.463Z,11.59
2019-03-21T19:07:06.009Z,11.54
2019-03-21T19:09:38.455Z,11.54
2019-03-21T19:12:09.295Z,11.56
2019-03-21T19:14:40.199Z,11.54
2019-03-21T19:17:10.987Z,11.50
2019-03-21T19:19:41.908Z,11.54
2019-03-21T19:22:12.729Z,11.60
2019-03-21T19:24:43.511Z,11.54
2019-03-21T19:27:15.882Z,11.45
2019-03-21T19:29:46.699Z,11.36
2019-03-21T19:32:18.590Z,11.32
2019-03-21T19:34:49.143Z,11.30
2019-03-21T19:37:19.944Z,11.32
2019-03-21T19:39:50.754Z,11.24
2019-03-21T19:42:23.178Z,11.23
2019-03-21T19:44:55.280Z,11.20
2019-03-21T19:47:34.591Z,11.16
2019-03-21T19:50:09.962Z,11.16
2019-03-21T19:52:40.711Z,11.18
2019-03-21T19:55:12.258Z,11.18
2019-03-21T19:57:42.741Z,11.14
2019-03-21T20:00:20.795Z,11.15
2019-03-21T20:02:53.508Z,11.08
2019-03-21T20:05:24.649Z,11.12
2019-03-21T20:07:56.815Z,11.12
2019-03-21T20:10:29.248Z,11.07
2019-03-21T20:13:00.289Z,11.09
2019-03-21T20:15:33.035Z,11.06
2019-03-21T20:18:04.019Z,11.00
2019-03-21T20:20:35.146Z,10.98
2019-03-21T20:23:06.090Z,10.91
2019-03-21T20:26:02.098Z,10.97
2019-03-21T20:28:33.082Z,10.94
2019-03-21T20:31:04.584Z,10.87
2019-03-21T20:33:35.358Z,10.83
2019-03-21T20:36:06.135Z,10.80
2019-03-21T20:38:37.042Z,10.80
2019-03-21T20:41:07.868Z,10.78
2019-03-21T20:43:38.698Z,10.74
2019-03-21T20:46:09.188Z,10.68
2019-03-21T20:48:38.519Z,10.80
2019-03-21T20:51:10.908Z,10.87
2019-03-21T20:53:41.884Z,10.76
2019-03-21T20:56:12.589Z,10.82
2019-03-21T20:58:43.402Z,10.64
2019-03-21T21:01:14.241Z,10.68
2019-03-21T21:03:45.219Z,10.64
2019-03-21T21:06:16.151Z,10.58
2019-03-21T21:08:46.692Z,10.52
2019-03-21T21:11:17.625Z,10.56
2019-03-21T21:13:48.528Z,10.44
2019-03-21T21:16:19.412Z,10.54
2019-03-21T21:18:50.245Z,10.40
2019-03-21T21:21:21.180Z,10.30
2019-03-21T21:23:51.752Z,10.34
2019-03-21T21:26:22.544Z,10.28
2019-03-21T21:28:54.316Z,10.34
2019-03-21T21:31:25.246Z,10.24
2019-03-21T21:33:55.909Z,10.19
2019-03-21T21:36:26.402Z,10.12
2019-03-21T21:38:57.023Z,10.11
2019-03-21T21:41:27.989Z,10.10
2019-03-21T21:43:58.883Z,10.09
2019-03-21T21:46:29.848Z,10.02
2019-03-21T21:49:00.780Z,10.07
2019-03-21T21:51:31.744Z,10.02
2019-03-21T21:54:02.549Z,10.03
2019-03-21T21:56:33.381Z,10.00
2019-03-21T21:59:04.365Z,9.90
2019-03-21T22:01:35.179Z,9.92
2019-03-21T22:04:05.669Z,9.87
2019-03-21T22:06:36.819Z,9.89
2019-03-21T22:09:08.153Z,9.86
2019-03-21T22:11:39.080Z,9.84
2019-03-21T22:14:10.005Z,9.80
2019-03-21T22:16:40.879Z,9.82
2019-03-21T22:19:11.745Z,9.73
2019-03-21T22:21:42.247Z,9.71
2019-03-21T22:24:12.983Z,9.76
2019-03-21T22:26:43.857Z,9.70
2019-03-21T22:29:14.577Z,9.65
2019-03-21T22:31:45.407Z,9.62
2019-03-21T22:34:18.942Z,9.62
2019-03-21T22:36:49.769Z,9.72
2019-03-21T22:39:20.853Z,9.72
2019-03-21T22:41:51.346Z,9.60
2019-03-21T22:44:22.176Z,9.46
2019-03-21T22:46:52.977Z,9.45
2019-03-21T22:49:23.717Z,9.51
2019-03-21T22:51:54.557Z,9.58
2019-03-21T22:54:25.379Z,9.49
2019-03-21T22:56:56.117Z,9.34
2019-03-21T22:59:26.646Z,9.24
2019-03-21T23:01:57.154Z,9.10
2019-03-21T23:04:28.005Z,9.20
2019-03-21T23:06:58.945Z,9.14
2019-03-21T23:09:29.798Z,9.10
2019-03-21T23:12:00.971Z,9.16
2019-03-21T23:14:31.762Z,9.18
2019-03-21T23:17:02.623Z,9.18
2019-03-21T23:19:33.073Z,9.22
2019-03-21T23:22:04.108Z,9.13
2019-03-21T23:24:34.953Z,9.06
2019-03-21T23:27:06.373Z,9.06
2019-03-21T23:29:37.139Z,9.03
2019-03-21T23:32:08.145Z,9.12
2019-03-21T23:34:38.687Z,9.14
2019-03-21T23:37:09.265Z,9.12
2019-03-21T23:39:39.766Z,9.18
2019-03-21T23:42:10.287Z,9.15
2019-03-21T23:44:41.202Z,9.12
2019-03-21T23:47:12.209Z,9.18
2019-03-21T23:49:42.678Z,9.27
2019-03-21T23:52:13.399Z,9.30
2019-03-21T23:54:44.254Z,9.28
2019-03-21T23:57:14.959Z,9.33
2019-03-21T23:59:45.919Z,9.34
